Time;durP1;ratioP1;P1;durP2;ratioP2;P2;SDS_P1;SDS_P2;PMS_P1;PMS_P2;Temp;Humidity;BMP_temperature;BMP_pressure;BME280_temperature;BME280_humidity;BME280_pressure;Samples;Min_cycle;Max_cycle;Signal;HPM_P1;HPM_P2
2021/11/26 00:02:05;;;;;;;27.40;14.07;;;4.20;67.00;;;;;;5035624;28;20033;-40
2021/11/26 00:04:31;;;;;;;24.23;12.73;;;4.20;67.10;;;;;;5036014;28;20428;-34
2021/11/26 00:06:57;;;;;;;23.95;12.40;;;4.20;67.20;;;;;;5035531;28;20037;-41
2021/11/26 00:09:23;;;;;;;24.95;11.57;;;4.20;67.20;;;;;;5036060;28;20303;-34
2021/11/26 00:11:49;;;;;;;26.38;12.98;;;4.20;67.30;;;;;;5037776;28;20033;-35
2021/11/26 00:14:21;;;;;;;26.13;13.90;;;4.20;67.30;;;;;;5039693;28;20033;-40
2021/11/26 00:16:54;;;;;;;25.65;14.07;;;4.30;67.40;;;;;;5039694;28;20083;-39
2021/11/26 00:19:19;;;;;;;20.27;13.23;;;4.30;67.40;;;;;;5039597;28;20033;-40
2021/11/26 00:21:45;;;;;;;19.35;12.07;;;4.30;67.40;;;;;;5039542;28;20099;-40
2021/11/26 00:24:13;;;;;;;18.42;11.70;;;4.30;67.50;;;;;;5039416;28;20029;-40
2021/11/26 00:26:39;;;;;;;19.60;11.38;;;4.40;67.60;;;;;;5039428;28;20437;-39
2021/11/26 00:29:05;;;;;;;16.75;9.35;;;4.40;67.60;;;;;;5039510;28;20326;-34
2021/11/26 00:31:32;;;;;;;20.10;11.43;;;4.40;67.70;;;;;;5039148;28;20029;-33
2021/11/26 00:33:58;;;;;;;22.00;11.40;;;4.40;68.10;;;;;;5039290;28;20094;-39
2021/11/26 00:36:24;;;;;;;34.45;20.48;;;4.30;68.10;;;;;;5039135;28;20037;-39
2021/11/26 00:38:49;;;;;;;26.63;16.23;;;4.30;68.30;;;;;;5039180;28;20097;-34
2021/11/26 00:41:15;;;;;;;22.58;12.85;;;4.30;68.40;;;;;;5039219;28;20030;-39
2021/11/26 00:43:41;;;;;;;29.92;16.42;;;4.30;68.50;;;;;;5039282;28;20025;-34
2021/11/26 00:46:07;;;;;;;26.38;13.98;;;4.30;68.60;;;;;;5039021;28;20037;-33
2021/11/26 00:48:32;;;;;;;18.83;11.40;;;4.30;68.80;;;;;;5038908;28;20020;-39
2021/11/26 00:50:58;;;;;;;21.15;12.30;;;4.30;68.90;;;;;;5039180;28;20299;-34
2021/11/26 00:53:24;;;;;;;18.63;11.13;;;4.30;68.90;;;;;;5038657;28;20040;-34
2021/11/26 00:55:49;;;;;;;21.48;11.95;;;4.30;69.10;;;;;;5038480;28;20059;-39
2021/11/26 00:58:15;;;;;;;21.58;11.15;;;4.20;69.20;;;;;;5038571;28;20325;-39
2021/11/26 01:00:41;;;;;;;15.88;10.18;;;4.20;69.20;;;;;;5039198;28;20030;-40
2021/11/26 01:03:07;;;;;;;18.20;9.30;;;4.20;69.40;;;;;;5038406;28;20040;-34
2021/11/26 01:05:33;;;;;;;18.63;10.27;;;4.20;69.40;;;;;;5039255;28;20033;-40
2021/11/26 01:07:58;;;;;;;15.68;8.27;;;4.20;69.50;;;;;;5038462;28;20116;-33
2021/11/26 01:10:25;;;;;;;16.45;8.98;;;4.10;69.60;;;;;;5038878;28;20041;-34
2021/11/26 01:12:51;;;;;;;18.17;9.50;;;4.10;69.70;;;;;;5038610;28;20037;-40
2021/11/26 01:15:20;;;;;;;17.48;9.73;;;4.10;70.00;;;;;;5038916;28;20436;-40
2021/11/26 01:17:47;;;;;;;15.30;9.35;;;4.10;70.10;;;;;;5038339;28;20342;-40
2021/11/26 01:20:16;;;;;;;19.00;10.20;;;4.10;70.90;;;;;;5038293;28;20140;-34
2021/11/26 01:22:42;;;;;;;16.35;9.40;;;4.10;70.50;;;;;;5038275;28;20042;-34
2021/11/26 01:25:11;;;;;;;18.30;10.05;;;4.10;70.70;;;;;;5038628;28;20175;-35
2021/11/26 01:27:37;;;;;;;16.38;8.55;;;4.10;70.70;;;;;;5038018;28;20029;-35
2021/11/26 01:30:11;;;;;;;20.15;10.23;;;4.10;70.80;;;;;;5038616;28;20041;-39
2021/11/26 01:32:37;;;;;;;19.63;10.68;;;4.10;70.90;;;;;;5037996;28;20444;-40
2021/11/26 01:35:03;;;;;;;19.08;10.73;;;4.10;70.90;;;;;;5038224;28;20427;-34
2021/11/26 01:37:29;;;;;;;19.05;10.48;;;4.10;70.90;;;;;;5037844;28;20029;-34
2021/11/26 01:39:55;;;;;;;18.08;9.50;;;4.10;71.10;;;;;;5038247;28;20121;-34
2021/11/26 01:42:21;;;;;;;18.30;10.52;;;4.10;71.20;;;;;;5037707;28;20373;-35
2021/11/26 01:44:47;;;;;;;17.88;9.45;;;4.10;71.20;;;;;;5038062;28;20088;-34
2021/11/26 01:47:13;;;;;;;17.20;9.88;;;4.10;71.30;;;;;;5037676;28;20041;-35
2021/11/26 01:49:39;;;;;;;19.70;9.88;;;4.10;71.50;;;;;;5038076;28;20034;-35
2021/11/26 01:52:05;;;;;;;20.98;10.95;;;4.10;71.50;;;;;;5037712;28;20056;-39
2021/11/26 01:54:31;;;;;;;19.73;12.07;;;4.10;71.70;;;;;;5037443;28;20068;-35
2021/11/26 01:56:57;;;;;;;21.55;12.50;;;4.10;71.80;;;;;;5037492;28;20369;-40
2021/11/26 01:59:23;;;;;;;19.33;10.40;;;4.10;72.10;;;;;;5037793;28;20040;-35
2021/11/26 02:01:49;;;;;;;21.75;12.90;;;4.10;72.40;;;;;;5037434;28;20415;-34
2021/11/26 02:04:15;;;;;;;18.83;11.88;;;4.10;72.30;;;;;;5037777;28;20080;-33
2021/11/26 02:06:41;;;;;;;24.33;12.57;;;4.00;72.50;;;;;;5037561;28;20136;-39
2021/11/26 02:09:07;;;;;;;19.25;11.65;;;4.10;72.80;;;;;;5037759;28;20044;-39
2021/11/26 02:11:33;;;;;;;24.08;14.00;;;4.10;72.90;;;;;;5037508;28;20033;-34
2021/11/26 02:13:58;;;;;;;28.20;13.05;;;4.10;73.00;;;;;;5037406;28;20026;-34
2021/11/26 02:16:24;;;;;;;27.52;13.63;;;4.10;73.20;;;;;;5037053;28;20116;-40
2021/11/26 02:18:50;;;;;;;26.60;15.18;;;4.10;73.10;;;;;;5037167;28;20025;-39
2021/11/26 02:21:18;;;;;;;24.52;14.80;;;4.10;73.20;;;;;;5037026;28;20112;-39
2021/11/26 02:23:44;;;;;;;25.20;14.57;;;4.10;73.20;;;;;;5037413;28;20454;-33
2021/11/26 02:26:10;;;;;;;25.85;13.90;;;4.10;73.50;;;;;;5037448;28;20051;-38
2021/11/26 02:28:35;;;;;;;24.50;13.30;;;4.20;73.40;;;;;;5037287;28;20017;-39
2021/11/26 02:31:01;;;;;;;21.73;12.80;;;4.20;73.40;;;;;;5037642;28;20304;-34
2021/11/26 02:33:27;;;;;;;29.30;16.40;;;4.20;73.60;;;;;;5036274;28;20037;-34
2021/11/26 02:35:54;;;;;;;29.38;15.65;;;4.20;73.80;;;;;;5037183;28;20029;-38
2021/11/26 02:38:23;;;;;;;26.70;16.63;;;4.20;73.60;;;;;;5037071;28;20029;-41
2021/11/26 02:40:49;;;;;;;26.25;15.55;;;4.20;73.70;;;;;;5037242;28;20056;-38
2021/11/26 02:43:16;;;;;;;28.35;16.00;;;4.30;73.80;;;;;;5036510;28;20033;-40
2021/11/26 02:45:44;;;;;;;28.38;17.25;;;4.30;74.00;;;;;;5037276;28;20026;-38
2021/11/26 02:48:11;;;;;;;28.95;15.55;;;4.30;74.10;;;;;;5036209;28;20037;-33
2021/11/26 02:50:37;;;;;;;24.20;14.40;;;4.30;74.00;;;;;;5035982;28;20334;-33
2021/11/26 02:53:04;;;;;;;25.73;12.90;;;4.30;74.00;;;;;;5036398;28;20064;-33
2021/11/26 02:55:33;;;;;;;23.55;12.77;;;4.30;74.20;;;;;;5036419;28;20065;-33
2021/11/26 02:57:59;;;;;;;22.50;12.93;;;4.30;74.20;;;;;;5036336;28;20029;-34
2021/11/26 03:00:27;;;;;;;24.85;13.60;;;4.40;74.10;;;;;;5036936;28;20417;-40
2021/11/26 03:02:54;;;;;;;27.52;16.35;;;4.40;74.10;;;;;;5036261;28;20033;-40
2021/11/26 03:05:20;;;;;;;22.17;15.00;;;4.40;74.10;;;;;;5036793;28;20309;-35
2021/11/26 03:07:46;;;;;;;24.85;14.43;;;4.40;74.60;;;;;;5036164;28;20471;-40
2021/11/26 03:10:17;;;;;;;26.27;15.88;;;4.50;74.00;;;;;;5036754;28;20029;-34
2021/11/26 03:12:49;;;;;;;26.05;16.30;;;4.50;74.00;;;;;;5036586;28;20056;-34
2021/11/26 03:15:16;;;;;;;25.63;15.75;;;4.50;73.90;;;;;;5036563;28;20038;-40
2021/11/26 03:17:42;;;;;;;24.02;13.15;;;4.50;74.40;;;;;;5036009;28;20026;-39
2021/11/26 03:20:09;;;;;;;25.13;16.20;;;4.50;73.80;;;;;;5036537;28;20314;-40
2021/11/26 03:22:35;;;;;;;25.58;15.38;;;4.50;73.70;;;;;;5036341;28;20362;-34
2021/11/26 03:25:02;;;;;;;27.85;15.32;;;4.50;73.70;;;;;;5036284;28;20032;-35
2021/11/26 03:27:29;;;;;;;25.45;15.52;;;4.50;73.70;;;;;;5036187;28;20025;-39
2021/11/26 03:29:54;;;;;;;25.63;15.38;;;4.50;73.70;;;;;;5036441;28;20030;-34
2021/11/26 03:32:21;;;;;;;29.80;17.50;;;4.50;73.70;;;;;;5036040;28;20033;-35
2021/11/26 03:34:46;;;;;;;28.70;17.88;;;4.50;73.70;;;;;;5036290;28;20455;-35
2021/11/26 03:37:12;;;;;;;29.35;18.45;;;4.50;73.70;;;;;;5036037;28;20034;-34
2021/11/26 03:39:38;;;;;;;34.45;20.75;;;4.50;73.70;;;;;;5036247;28;20475;-35
2021/11/26 03:42:04;;;;;;;29.80;17.65;;;4.50;73.80;;;;;;5035621;28;20026;-39
2021/11/26 03:44:30;;;;;;;27.52;17.05;;;4.50;73.90;;;;;;5036370;28;20055;-33
2021/11/26 03:46:56;;;;;;;31.33;18.58;;;4.50;73.80;;;;;;5035360;28;20026;-33
2021/11/26 03:49:21;;;;;;;25.95;15.98;;;4.50;73.90;;;;;;5036234;28;20036;-38
2021/11/26 03:51:47;;;;;;;29.95;19.13;;;4.50;74.00;;;;;;5035483;28;20037;-38
2021/11/26 03:54:13;;;;;;;29.85;15.52;;;4.50;74.00;;;;;;5035604;28;20053;-40
2021/11/26 03:56:39;;;;;;;26.67;16.38;;;4.50;74.10;;;;;;5035773;28;20030;-39
2021/11/26 03:59:06;;;;;;;32.95;19.13;;;4.50;74.10;;;;;;5034567;28;20164;-33
2021/11/26 04:01:33;;;;;;;30.75;18.38;;;4.50;74.20;;;;;;5035863;28;20430;-39
2021/11/26 04:03:58;;;;;;;39.55;22.35;;;4.60;74.20;;;;;;5035968;28;20119;-39
2021/11/26 04:06:24;;;;;;;34.17;18.90;;;4.60;74.20;;;;;;5035733;28;20369;-34
2021/11/26 04:08:50;;;;;;;30.58;18.98;;;4.60;74.30;;;;;;5035552;28;20402;-39
2021/11/26 04:11:16;;;;;;;31.63;18.98;;;4.60;74.20;;;;;;5035736;28;20132;-39
2021/11/26 04:13:41;;;;;;;28.90;16.73;;;4.70;74.30;;;;;;5035644;28;20410;-34
2021/11/26 04:16:12;;;;;;;31.27;16.02;;;4.70;74.20;;;;;;5035854;28;20036;-34
2021/11/26 04:18:39;;;;;;;27.20;14.07;;;4.70;74.10;;;;;;5035484;28;20036;-34
2021/11/26 04:21:05;;;;;;;21.40;12.15;;;4.80;74.20;;;;;;5035753;28;20031;-39
2021/11/26 04:23:31;;;;;;;20.70;11.15;;;4.80;74.20;;;;;;5035295;28;20021;-34
2021/11/26 04:25:57;;;;;;;21.40;11.43;;;4.80;74.10;;;;;;5035556;28;20076;-41
2021/11/26 04:28:23;;;;;;;24.70;11.85;;;4.80;74.30;;;;;;5035028;28;20036;-33
2021/11/26 04:30:49;;;;;;;20.02;10.45;;;4.80;74.40;;;;;;5035705;28;20034;-38
2021/11/26 04:33:15;;;;;;;21.23;10.10;;;4.80;74.50;;;;;;5035215;28;20076;-33
2021/11/26 04:35:41;;;;;;;20.38;10.38;;;4.70;74.60;;;;;;5035709;28;20061;-39
2021/11/26 04:38:07;;;;;;;18.23;9.65;;;4.70;74.70;;;;;;5035377;28;20041;-41
2021/11/26 04:40:32;;;;;;;24.02;10.10;;;4.70;74.80;;;;;;5035746;28;20033;-34
2021/11/26 04:42:58;;;;;;;19.65;10.23;;;4.70;75.00;;;;;;5035007;28;20026;-35
2021/11/26 04:45:24;;;;;;;17.13;9.45;;;4.70;75.30;;;;;;5035683;28;20035;-40
2021/11/26 04:47:50;;;;;;;17.50;9.63;;;4.70;75.20;;;;;;5035297;28;20425;-35
2021/11/26 04:50:17;;;;;;;18.42;9.90;;;4.70;75.30;;;;;;5035578;28;20033;-42
2021/11/26 04:52:42;;;;;;;13.95;7.70;;;4.70;75.50;;;;;;5033963;28;20445;-34
2021/11/26 04:55:10;;;;;;;18.65;10.65;;;4.60;75.70;;;;;;5034927;28;20053;-39
2021/11/26 04:57:36;;;;;;;17.35;9.45;;;4.60;75.70;;;;;;5036401;28;20368;-40
2021/11/26 05:00:04;;;;;;;15.82;8.82;;;4.60;76.00;;;;;;5039041;28;20121;-40
2021/11/26 05:02:29;;;;;;;18.88;9.65;;;4.70;76.00;;;;;;5038513;28;20184;-34
2021/11/26 05:04:55;;;;;;;19.58;9.10;;;4.60;75.90;;;;;;5038485;28;20038;-40
2021/11/26 05:07:23;;;;;;;20.33;8.98;;;4.70;76.10;;;;;;5038348;28;20469;-40
2021/11/26 05:09:48;;;;;;;16.33;8.65;;;4.70;76.10;;;;;;5038896;28;20349;-35
2021/11/26 05:12:15;;;;;;;20.40;10.02;;;4.70;76.10;;;;;;5038370;28;20033;-34
2021/11/26 05:14:40;;;;;;;17.13;9.73;;;4.70;76.20;;;;;;5038682;28;20030;-40
2021/11/26 05:17:06;;;;;;;16.35;9.07;;;4.70;76.10;;;;;;5038162;28;20155;-34
2021/11/26 05:19:32;;;;;;;20.55;10.13;;;4.70;76.10;;;;;;5038441;28;20410;-39
2021/11/26 05:21:57;;;;;;;15.88;8.57;;;4.70;76.10;;;;;;5038376;28;20452;-42
2021/11/26 05:24:23;;;;;;;15.95;8.68;;;4.70;76.10;;;;;;5038518;28;20399;-40
2021/11/26 05:26:49;;;;;;;17.70;9.55;;;4.70;76.10;;;;;;5037914;28;20049;-34
2021/11/26 05:29:15;;;;;;;14.40;8.55;;;4.70;76.20;;;;;;5038086;28;20427;-39
2021/11/26 05:31:40;;;;;;;14.68;8.60;;;4.70;76.10;;;;;;5037935;28;20037;-40
2021/11/26 05:34:07;;;;;;;17.88;9.77;;;4.70;76.20;;;;;;5038248;28;20437;-34
2021/11/26 05:36:34;;;;;;;18.08;9.20;;;4.70;76.10;;;;;;5037562;28;20034;-39
2021/11/26 05:39:01;;;;;;;17.33;8.70;;;4.70;76.20;;;;;;5037733;28;20119;-35
2021/11/26 05:41:27;;;;;;;17.52;9.50;;;4.70;76.10;;;;;;5038079;28;20033;-34
2021/11/26 05:43:52;;;;;;;15.70;8.43;;;4.70;76.10;;;;;;5037886;28;20433;-39
2021/11/26 05:46:18;;;;;;;15.40;8.43;;;4.70;76.10;;;;;;5037700;28;20100;-35
2021/11/26 05:48:44;;;;;;;16.58;8.80;;;4.70;76.10;;;;;;5037861;28;20022;-34
2021/11/26 05:51:10;;;;;;;16.92;9.27;;;4.70;76.10;;;;;;5036687;28;20037;-33
2021/11/26 05:53:35;;;;;;;18.25;9.45;;;4.70;76.10;;;;;;5037466;28;20322;-34
2021/11/26 05:56:01;;;;;;;17.52;9.23;;;4.70;76.20;;;;;;5037212;28;20111;-35
2021/11/26 05:58:28;;;;;;;15.85;9.55;;;4.80;76.10;;;;;;5037541;28;20032;-41
2021/11/26 06:00:54;;;;;;;22.27;10.52;;;4.80;76.10;;;;;;5037697;28;20034;-39
2021/11/26 06:03:20;;;;;;;17.35;9.93;;;4.80;76.00;;;;;;5047187;28;20091;-34
2021/11/26 06:05:46;;;;;;;18.92;9.55;;;4.80;76.00;;;;;;5037816;28;20060;-40
2021/11/26 06:08:12;;;;;;;18.40;9.70;;;4.90;76.00;;;;;;5045659;28;20075;-40
2021/11/26 06:10:38;;;;;;;22.15;9.93;;;4.90;76.00;;;;;;5056975;28;20033;-34
2021/11/26 06:13:04;;;;;;;18.25;9.10;;;4.90;76.00;;;;;;5055940;28;20040;-41
2021/11/26 06:15:30;;;;;;;15.68;8.90;;;5.00;76.00;;;;;;5037920;28;20321;-41
2021/11/26 06:17:56;;;;;;;21.10;10.20;;;5.00;75.90;;;;;;5055604;28;20056;-40
2021/11/26 06:20:22;;;;;;;17.75;9.05;;;5.00;75.90;;;;;;5057197;28;20033;-35
2021/11/26 06:22:49;;;;;;;14.43;8.00;;;5.10;75.80;;;;;;5056333;28;20071;-47
2021/11/26 06:25:17;;;;;;;16.30;9.02;;;5.10;75.70;;;;;;5053881;28;20027;-46
2021/11/26 06:27:45;;;;;;;21.98;9.75;;;5.10;75.60;;;;;;5056677;28;20029;-47
2021/11/26 06:30:12;;;;;;;14.70;9.07;;;5.20;75.60;;;;;;5055977;28;20421;-47
2021/11/26 06:32:39;;;;;;;16.83;9.57;;;5.20;75.50;;;;;;5056253;28;20444;-47
2021/11/26 06:35:05;;;;;;;15.88;9.48;;;5.30;75.50;;;;;;5049814;28;20482;-35
2021/11/26 06:37:31;;;;;;;18.52;8.85;;;5.30;75.40;;;;;;5053954;28;20421;-33
2021/11/26 06:39:57;;;;;;;14.73;8.50;;;5.40;75.30;;;;;;5056429;28;20040;-40
2021/11/26 06:42:22;;;;;;;15.35;8.80;;;5.40;75.20;;;;;;5056069;28;20071;-38
2021/11/26 06:44:48;;;;;;;15.18;8.23;;;5.50;75.20;;;;;;5056398;28;20025;-41
2021/11/26 06:47:14;;;;;;;19.30;9.25;;;5.60;75.10;;;;;;5055888;28;20028;-40
2021/11/26 06:49:40;;;;;;;17.38;8.70;;;5.60;75.00;;;;;;5055904;28;20160;-34
2021/11/26 06:52:06;;;;;;;13.82;7.85;;;5.60;74.80;;;;;;5053857;28;20045;-33
2021/11/26 06:54:31;;;;;;;13.00;7.45;;;5.70;74.70;;;;;;5053647;28;20036;-34
2021/11/26 06:56:57;;;;;;;13.77;6.72;;;5.80;74.60;;;;;;5044581;28;20413;-41
2021/11/26 06:59:23;;;;;;;13.40;6.95;;;5.80;74.40;;;;;;5036689;28;20430;-34
2021/11/26 07:01:48;;;;;;;12.90;7.10;;;5.80;74.30;;;;;;5036332;28;20029;-41
2021/11/26 07:04:14;;;;;;;15.13;8.38;;;5.90;74.30;;;;;;5035943;28;20105;-35
2021/11/26 07:06:40;;;;;;;14.65;7.25;;;5.90;74.20;;;;;;5036281;28;20039;-40
2021/11/26 07:09:06;;;;;;;12.15;7.07;;;6.00;74.30;;;;;;5036600;28;20084;-41
2021/11/26 07:11:32;;;;;;;11.52;6.30;;;6.00;74.20;;;;;;5037667;28;20314;-40
2021/11/26 07:13:57;;;;;;;9.77;6.43;;;6.10;74.10;;;;;;5035736;28;20025;-34
2021/11/26 07:16:23;;;;;;;29.13;14.63;;;6.10;74.00;;;;;;5034367;28;20087;-40
2021/11/26 07:18:49;;;;;;;12.82;6.97;;;6.20;74.00;;;;;;5034706;28;20021;-40
2021/11/26 07:21:15;;;;;;;12.85;6.63;;;6.20;73.90;;;;;;5033418;28;20136;-33
2021/11/26 07:23:41;;;;;;;10.90;6.40;;;6.20;73.80;;;;;;5033790;28;20353;-40
2021/11/26 07:26:06;;;;;;;12.57;7.03;;;6.30;73.70;;;;;;5033907;28;20033;-40
2021/11/26 07:28:32;;;;;;;10.02;6.25;;;6.30;73.60;;;;;;5033690;28;20443;-34
2021/11/26 07:30:58;;;;;;;17.75;10.52;;;6.30;73.60;;;;;;5033920;28;20029;-35
2021/11/26 07:33:24;;;;;;;9.93;5.50;;;6.30;73.60;;;;;;5033398;28;20029;-40
2021/11/26 07:35:50;;;;;;;13.48;6.70;;;6.30;73.50;;;;;;5037322;28;20025;-41
2021/11/26 07:38:16;;;;;;;10.73;6.30;;;6.40;73.50;;;;;;5044026;28;20041;-33
2021/11/26 07:40:42;;;;;;;12.23;5.80;;;6.40;73.40;;;;;;5037261;28;20171;-43
2021/11/26 07:43:08;;;;;;;11.30;6.00;;;6.40;73.40;;;;;;5047808;28;20052;-48
2021/11/26 07:45:34;;;;;;;12.70;6.45;;;6.40;73.40;;;;;;5055247;28;20325;-44
2021/11/26 07:47:59;;;;;;;13.88;6.93;;;6.40;73.30;;;;;;5054708;28;20120;-47
2021/11/26 07:50:25;;;;;;;11.52;6.93;;;6.50;73.40;;;;;;5055837;28;20036;-35
2021/11/26 07:52:51;;;;;;;15.88;8.18;;;6.50;73.40;;;;;;5054936;28;20029;-41
2021/11/26 07:55:17;;;;;;;16.35;9.05;;;6.50;73.50;;;;;;5054881;28;20055;-40
2021/11/26 07:57:43;;;;;;;11.20;6.00;;;6.60;73.40;;;;;;5055101;28;20029;-35
2021/11/26 08:00:10;;;;;;;13.57;7.22;;;6.60;73.40;;;;;;5055299;28;20029;-40
2021/11/26 08:02:36;;;;;;;11.20;5.50;;;6.70;73.50;;;;;;5055233;28;20044;-39
2021/11/26 08:05:02;;;;;;;13.65;6.35;;;6.80;73.20;;;;;;5054914;28;20328;-34
2021/11/26 08:07:28;;;;;;;9.55;5.57;;;6.80;73.10;;;;;;5055179;28;20052;-34
2021/11/26 08:09:54;;;;;;;12.18;6.28;;;6.90;73.00;;;;;;5055222;28;20334;-34
2021/11/26 08:12:19;;;;;;;14.48;6.75;;;6.90;72.90;;;;;;5054598;28;20098;-35
2021/11/26 08:14:48;;;;;;;12.70;6.70;;;6.90;72.80;;;;;;5055073;28;20057;-40
2021/11/26 08:17:14;;;;;;;15.73;6.32;;;7.00;72.80;;;;;;5054498;28;20037;-35
2021/11/26 08:19:40;;;;;;;13.20;6.95;;;7.00;72.80;;;;;;5054936;28;20048;-38
2021/11/26 08:22:05;;;;;;;12.25;6.45;;;7.10;72.80;;;;;;5052340;28;20033;-40
2021/11/26 08:24:31;;;;;;;17.35;7.60;;;7.10;72.80;;;;;;5052629;28;20025;-39
2021/11/26 08:26:58;;;;;;;15.25;7.15;;;7.10;72.60;;;;;;5034940;28;20041;-34
2021/11/26 08:29:24;;;;;;;12.93;6.38;;;7.20;72.60;;;;;;5035330;28;20100;-35
2021/11/26 08:31:50;;;;;;;11.57;6.15;;;7.20;72.50;;;;;;5042059;28;20112;-42
2021/11/26 08:34:16;;;;;;;16.52;6.88;;;7.20;72.50;;;;;;5042507;28;20065;-40
2021/11/26 08:36:42;;;;;;;18.55;7.65;;;7.20;72.40;;;;;;5038502;28;20025;-40
2021/11/26 08:39:08;;;;;;;16.90;7.97;;;7.30;72.50;;;;;;5038714;28;20112;-40
2021/11/26 08:41:35;;;;;;;11.18;6.93;;;7.30;72.50;;;;;;5038449;28;20030;-40
2021/11/26 08:44:01;;;;;;;14.77;7.28;;;7.40;72.40;;;;;;5038818;28;20034;-34
2021/11/26 08:46:27;;;;;;;13.50;7.15;;;7.40;72.30;;;;;;5038362;28;20337;-39
2021/11/26 08:48:53;;;;;;;11.88;7.30;;;7.40;72.10;;;;;;5039265;28;20025;-34
2021/11/26 08:51:20;;;;;;;15.40;7.65;;;7.40;71.90;;;;;;5039536;28;20032;-39
2021/11/26 08:53:46;;;;;;;17.00;7.30;;;7.50;72.00;;;;;;5039591;28;20033;-40
2021/11/26 08:56:16;;;;;;;15.45;7.43;;;7.50;71.90;;;;;;5037819;28;20040;-40
2021/11/26 08:58:45;;;;;;;23.77;8.25;;;7.60;71.90;;;;;;5038372;28;20032;-34
2021/11/26 09:01:11;;;;;;;12.13;8.05;;;7.60;71.90;;;;;;5057696;28;20040;-40
2021/11/26 09:03:37;;;;;;;16.45;8.20;;;7.70;72.00;;;;;;5057716;28;20309;-40
2021/11/26 09:06:04;;;;;;;14.13;8.18;;;7.70;71.70;;;;;;5055716;28;20256;-35
2021/11/26 09:08:30;;;;;;;15.82;8.85;;;7.80;71.70;;;;;;5054036;28;20025;-40
2021/11/26 09:10:56;;;;;;;15.82;7.80;;;7.90;71.70;;;;;;5054957;28;20039;-40
2021/11/26 09:13:22;;;;;;;15.35;8.43;;;7.90;71.70;;;;;;5057888;28;20029;-35
2021/11/26 09:15:48;;;;;;;13.10;7.70;;;8.00;71.60;;;;;;5058245;28;20033;-40
2021/11/26 09:18:16;;;;;;;14.77;8.13;;;8.00;71.40;;;;;;5054991;28;20429;-34
2021/11/26 09:20:45;;;;;;;12.30;7.15;;;8.10;71.20;;;;;;5053885;28;20028;-35
2021/11/26 09:23:11;;;;;;;14.43;7.38;;;8.20;71.20;;;;;;5054823;28;20104;-33
2021/11/26 09:25:37;;;;;;;13.05;7.68;;;8.20;71.00;;;;;;5058082;28;20404;-39
2021/11/26 09:28:03;;;;;;;15.45;7.28;;;8.20;70.90;;;;;;5057567;28;20026;-35
2021/11/26 09:30:31;;;;;;;12.43;7.78;;;8.30;70.70;;;;;;5058102;28;20116;-33
2021/11/26 09:32:58;;;;;;;10.10;5.97;;;8.30;70.40;;;;;;5053847;28;20520;-35
2021/11/26 09:35:25;;;;;;;11.85;6.70;;;8.40;70.20;;;;;;5056437;28;20334;-34
2021/11/26 09:37:52;;;;;;;9.57;5.55;;;8.40;70.00;;;;;;5057297;28;20072;-39
2021/11/26 09:40:20;;;;;;;14.52;7.60;;;8.50;70.20;;;;;;5057458;28;20045;-40
2021/11/26 09:42:46;;;;;;;9.43;5.75;;;8.50;70.10;;;;;;5057205;28;20112;-40
2021/11/26 09:45:19;;;;;;;13.80;6.70;;;8.60;69.90;;;;;;5057812;28;20090;-34
2021/11/26 09:47:45;;;;;;;13.25;6.50;;;8.70;69.90;;;;;;5055540;28;20079;-41
2021/11/26 09:50:11;;;;;;;10.18;5.60;;;8.70;69.70;;;;;;5048110;28;20029;-41
2021/11/26 09:52:42;;;;;;;17.77;6.35;;;8.80;70.00;;;;;;5039333;28;20029;-40
2021/11/26 09:55:08;;;;;;;;;;;8.80;69.30;;;;;;5040128;28;20438;-34
2021/11/26 09:57:34;;;;;;;15.45;6.00;;;8.90;69.30;;;;;;5041833;28;20313;-34
2021/11/26 10:00:00;;;;;;;23.70;5.95;;;8.90;69.00;;;;;;5037447;28;20029;-40
2021/11/26 10:02:26;;;;;;;11.82;5.82;;;9.00;69.30;;;;;;5037112;28;20417;-35
2021/11/26 10:05:05;;;;;;;10.63;5.80;;;9.00;69.10;;;;;;5040502;28;20037;-35
2021/11/26 10:07:31;;;;;;;12.20;6.78;;;9.10;69.00;;;;;;5045404;28;20176;-40
2021/11/26 10:10:08;;;;;;;20.88;7.38;;;9.20;68.80;;;;;;5042040;28;20030;-42
2021/11/26 10:12:34;;;;;;;14.77;7.03;;;9.20;68.50;;;;;;5035865;28;20052;-35
2021/11/26 10:15:00;;;;;;;13.85;6.50;;;9.30;68.50;;;;;;5036926;28;20029;-41
2021/11/26 10:17:25;;;;;;;21.50;7.97;;;9.30;68.40;;;;;;5036698;28;20084;-41
2021/11/26 10:19:54;;;;;;;13.65;6.78;;;9.30;68.40;;;;;;5036775;28;20037;-40
2021/11/26 10:22:24;;;;;;;12.07;5.95;;;9.40;68.30;;;;;;5036534;28;20025;-40
2021/11/26 10:25:08;;;;;;;16.55;6.72;;;9.40;68.50;;;;;;5037172;28;20028;-40
2021/11/26 10:27:55;;;;;;;12.63;6.50;;;9.50;68.50;;;;;;5036683;28;20040;-40
2021/11/26 10:30:28;;;;;;;16.42;5.55;;;9.50;67.80;;;;;;5042108;28;20760;-42
2021/11/26 10:32:58;;;;;;;13.00;6.28;;;9.50;67.70;;;;;;5045209;28;20409;-35
2021/11/26 10:35:26;;;;;;;12.23;5.20;;;9.50;67.40;;;;;;5053882;28;20166;-42
2021/11/26 10:37:59;;;;;;;12.20;5.55;;;9.50;67.40;;;;;;5055536;28;20111;-35
2021/11/26 10:40:26;;;;;;;20.60;8.32;;;9.50;67.50;;;;;;5047001;28;20314;-34
2021/11/26 10:42:52;;;;;;;12.27;5.45;;;9.40;67.60;;;;;;5045101;28;20423;-35
2021/11/26 10:45:43;;;;;;;12.73;5.80;;;9.40;67.70;;;;;;5046735;28;20025;-40
2021/11/26 10:48:33;;;;;;;14.05;5.43;;;9.40;67.90;;;;;;5043068;28;20069;-35
2021/11/26 10:56:52;;;;;;;11.90;5.45;;;9.50;68.10;;;;;;5034982;28;20060;-40
2021/11/26 10:59:28;;;;;;;12.55;5.35;;;9.50;68.00;;;;;;5036096;28;20021;-35
2021/11/26 11:01:55;;;;;;;10.82;4.78;;;9.50;68.00;;;;;;5035608;28;20030;-34
2021/11/26 11:04:23;;;;;;;12.15;5.25;;;9.60;67.90;;;;;;5050832;28;20033;-41
2021/11/26 11:07:07;;;;;;;6.35;4.38;;;9.60;67.80;;;;;;5056103;28;20039;-35
2021/11/26 11:09:50;;;;;;;11.20;5.25;;;9.60;67.70;;;;;;5056116;28;20056;-34
2021/11/26 11:12:17;;;;;;;11.10;5.32;;;9.60;67.60;;;;;;5055413;28;20422;-36
2021/11/26 11:14:55;;;;;;;12.02;4.50;;;9.60;67.40;;;;;;5055792;28;20079;-36
2021/11/26 11:17:21;;;;;;;11.57;5.10;;;9.70;67.40;;;;;;5055159;28;20029;-36
2021/11/26 11:19:47;;;;;;;9.85;4.75;;;9.70;67.30;;;;;;5055985;28;20326;-34
2021/11/26 11:22:13;;;;;;;9.02;5.55;;;9.70;67.50;;;;;;5055243;28;20033;-42
2021/11/26 11:24:39;;;;;;;18.40;6.05;;;9.70;67.60;;;;;;5055891;28;20290;-42
2021/11/26 11:27:06;;;;;;;10.98;5.30;;;9.70;67.60;;;;;;5049777;28;20088;-40
2021/11/26 11:29:31;;;;;;;11.88;5.20;;;9.70;67.50;;;;;;5046782;28;20029;-43
2021/11/26 11:32:00;;;;;;;9.98;6.57;;;9.70;67.30;;;;;;5034104;28;20329;-37
2021/11/26 11:34:28;;;;;;;16.70;5.28;;;9.80;67.40;;;;;;5035832;28;20165;-41
2021/11/26 11:36:58;;;;;;;9.63;4.68;;;9.70;67.30;;;;;;5035557;28;20025;-34
2021/11/26 11:39:25;;;;;;;8.88;4.53;;;9.70;67.20;;;;;;5035412;28;20417;-41
2021/11/26 11:41:59;;;;;;;7.55;5.00;;;9.70;67.20;;;;;;5035164;28;20441;-34
2021/11/26 11:44:31;;;;;;;9.02;5.07;;;9.70;67.20;;;;;;5035334;28;20029;-42
2021/11/26 11:46:58;;;;;;;17.25;7.85;;;9.70;67.20;;;;;;5035280;28;20059;-34
2021/11/26 11:49:30;;;;;;;17.63;4.93;;;9.70;67.30;;;;;;5034269;28;20026;-35
2021/11/26 11:51:58;;;;;;;10.40;5.85;;;9.70;67.20;;;;;;5034907;28;20050;-41
2021/11/26 11:54:34;;;;;;;12.23;5.30;;;9.70;67.30;;;;;;5035096;28;20041;-35
2021/11/26 11:57:00;;;;;;;16.88;5.63;;;9.70;67.30;;;;;;5034147;28;20033;-35
2021/11/26 11:59:33;;;;;;;11.43;5.05;;;9.70;67.30;;;;;;5035189;28;20037;-35
2021/11/26 12:02:07;;;;;;;11.75;6.07;;;9.70;67.10;;;;;;5039824;28;20329;-35
2021/11/26 12:04:42;;;;;;;13.23;6.82;;;9.70;67.20;;;;;;5040875;28;20045;-40
2021/11/26 12:07:20;;;;;;;12.10;6.03;;;9.70;67.30;;;;;;5034935;28;20025;-41
2021/11/26 12:09:46;;;;;;;16.88;7.03;;;9.60;67.30;;;;;;5039453;28;20294;-38
2021/11/26 12:12:16;;;;;;;17.42;7.22;;;9.60;67.30;;;;;;5036856;28;20037;-34
2021/11/26 12:14:50;;;;;;;10.50;5.05;;;9.60;67.50;;;;;;5038625;28;20101;-40
2021/11/26 12:17:34;;;;;;;12.75;5.57;;;9.60;67.60;;;;;;5038685;28;20033;-35
2021/11/26 12:20:17;;;;;;;9.35;5.47;;;9.50;67.70;;;;;;5039413;28;20033;-39
2021/11/26 12:23:08;;;;;;;18.55;6.10;;;9.50;67.80;;;;;;5039289;28;20033;-34
2021/11/26 12:28:19;;;;;;;18.95;8.10;;;9.40;68.20;;;;;;5038887;28;20029;-35
2021/11/26 12:30:58;;;;;;;11.75;5.90;;;9.40;68.30;;;;;;5039575;28;20029;-39
2021/11/26 12:33:25;;;;;;;12.10;6.72;;;9.40;68.30;;;;;;5038947;28;20052;-35
2021/11/26 12:35:59;;;;;;;17.30;6.15;;;9.40;68.50;;;;;;5039136;28;20033;-39
2021/11/26 12:38:41;;;;;;;18.52;7.88;;;9.40;68.60;;;;;;5037768;28;20176;-34
2021/11/26 12:41:09;;;;;;;18.63;7.18;;;9.40;68.70;;;;;;5038593;28;20043;-39
2021/11/26 12:43:39;;;;;;;23.88;8.43;;;9.30;68.70;;;;;;5038278;28;20018;-34
2021/11/26 12:46:05;;;;;;;15.30;8.82;;;9.30;68.80;;;;;;5038846;28;20030;-34
2021/11/26 12:48:35;;;;;;;16.65;7.68;;;9.30;69.00;;;;;;5038687;28;20032;-34
2021/11/26 12:51:04;;;;;;;9.45;7.05;;;9.20;69.10;;;;;;5038677;28;20083;-40
2021/11/26 12:53:31;;;;;;;11.45;6.45;;;9.20;69.30;;;;;;5038420;28;20430;-40